sensor_id;sensor_type;location;lat;lon;timestamp;P1;durP1;ratioP1;P2;durP2;ratioP2
18695;SDS011;22617;43.690;27.956;2022-10-17T00:02:30;11.27;;;6.63;;
18695;SDS011;22617;43.690;27.956;2022-10-17T00:07:34;13.17;;;6.30;;
18695;SDS011;22617;43.690;27.956;2022-10-17T00:12:38;14.67;;;6.63;;
18695;SDS011;22617;43.690;27.956;2022-10-17T00:17:42;15.47;;;7.77;;
18695;SDS011;22617;43.690;27.956;2022-10-17T00:22:46;15.77;;;7.73;;
18695;SDS011;22617;43.690;27.956;2022-10-17T00:27:50;16.40;;;7.63;;
18695;SDS011;22617;43.690;27.956;2022-10-17T00:32:54;15.33;;;6.77;;
18695;SDS011;22617;43.690;27.956;2022-10-17T00:37:57;14.40;;;8.10;;
18695;SDS011;22617;43.690;27.956;2022-10-17T00:43:02;18.47;;;8.07;;
18695;SDS011;22617;43.690;27.956;2022-10-17T00:48:05;15.23;;;8.40;;
18695;SDS011;22617;43.690;27.956;2022-10-17T00:53:11;16.10;;;7.87;;
18695;SDS011;22617;43.690;27.956;2022-10-17T00:58:17;20.87;;;8.70;;
18695;SDS011;22617;43.690;27.956;2022-10-17T01:03:21;18.70;;;7.70;;
18695;SDS011;22617;43.690;27.956;2022-10-17T01:08:25;19.00;;;7.83;;
18695;SDS011;22617;43.690;27.956;2022-10-17T01:13:32;14.67;;;7.43;;
18695;SDS011;22617;43.690;27.956;2022-10-17T01:18:43;13.90;;;7.10;;
18695;SDS011;22617;43.690;27.956;2022-10-17T01:24:02;13.43;;;7.47;;
18695;SDS011;22617;43.690;27.956;2022-10-17T01:29:37;16.20;;;6.90;;
18695;SDS011;22617;43.690;27.956;2022-10-17T01:34:56;13.80;;;7.07;;
18695;SDS011;22617;43.690;27.956;2022-10-17T01:40:05;10.53;;;5.87;;
18695;SDS011;22617;43.690;27.956;2022-10-17T01:45:13;13.40;;;6.80;;
18695;SDS011;22617;43.690;27.956;2022-10-17T01:50:24;17.10;;;6.37;;
18695;SDS011;22617;43.690;27.956;2022-10-17T01:55:34;14.10;;;7.13;;
18695;SDS011;22617;43.690;27.956;2022-10-17T02:00:41;12.53;;;5.87;;
18695;SDS011;22617;43.690;27.956;2022-10-17T02:05:48;10.83;;;6.17;;
18695;SDS011;22617;43.690;27.956;2022-10-17T02:10:53;14.40;;;6.07;;
18695;SDS011;22617;43.690;27.956;2022-10-17T02:16:04;9.90;;;6.00;;
18695;SDS011;22617;43.690;27.956;2022-10-17T02:21:19;11.37;;;6.00;;
18695;SDS011;22617;43.690;27.956;2022-10-17T02:26:31;12.43;;;5.70;;
18695;SDS011;22617;43.690;27.956;2022-10-17T02:31:40;14.33;;;6.30;;
18695;SDS011;22617;43.690;27.956;2022-10-17T02:36:49;12.93;;;5.70;;
18695;SDS011;22617;43.690;27.956;2022-10-17T02:41:55;11.13;;;5.40;;
18695;SDS011;22617;43.690;27.956;2022-10-17T02:47:06;11.07;;;5.50;;
18695;SDS011;22617;43.690;27.956;2022-10-17T02:52:16;12.17;;;5.20;;
18695;SDS011;22617;43.690;27.956;2022-10-17T02:57:29;12.77;;;5.90;;
18695;SDS011;22617;43.690;27.956;2022-10-17T03:02:39;9.23;;;4.80;;
18695;SDS011;22617;43.690;27.956;2022-10-17T03:07:45;13.23;;;5.30;;
18695;SDS011;22617;43.690;27.956;2022-10-17T03:12:48;7.87;;;4.90;;
18695;SDS011;22617;43.690;27.956;2022-10-17T03:17:53;7.87;;;4.40;;
18695;SDS011;22617;43.690;27.956;2022-10-17T03:22:59;9.93;;;5.13;;
18695;SDS011;22617;43.690;27.956;2022-10-17T03:28:03;9.63;;;4.63;;
18695;SDS011;22617;43.690;27.956;2022-10-17T03:33:07;12.23;;;4.63;;
18695;SDS011;22617;43.690;27.956;2022-10-17T03:38:12;11.07;;;5.37;;
18695;SDS011;22617;43.690;27.956;2022-10-17T03:43:15;10.87;;;4.80;;
18695;SDS011;22617;43.690;27.956;2022-10-17T03:48:20;8.67;;;4.70;;
18695;SDS011;22617;43.690;27.956;2022-10-17T03:53:24;9.57;;;4.50;;
18695;SDS011;22617;43.690;27.956;2022-10-17T03:58:29;9.80;;;4.53;;
18695;SDS011;22617;43.690;27.956;2022-10-17T04:03:34;9.33;;;5.77;;
18695;SDS011;22617;43.690;27.956;2022-10-17T04:08:39;11.93;;;4.87;;
18695;SDS011;22617;43.690;27.956;2022-10-17T04:13:51;9.57;;;5.03;;
18695;SDS011;22617;43.690;27.956;2022-10-17T04:18:58;12.57;;;4.97;;
18695;SDS011;22617;43.690;27.956;2022-10-17T04:24:09;15.30;;;5.40;;
18695;SDS011;22617;43.690;27.956;2022-10-17T04:29:22;9.33;;;5.13;;
18695;SDS011;22617;43.690;27.956;2022-10-17T04:34:30;12.00;;;4.90;;
18695;SDS011;22617;43.690;27.956;2022-10-17T04:39:35;6.17;;;4.43;;
18695;SDS011;22617;43.690;27.956;2022-10-17T04:44:39;8.03;;;4.77;;
18695;SDS011;22617;43.690;27.956;2022-10-17T04:49:43;9.00;;;4.53;;
18695;SDS011;22617;43.690;27.956;2022-10-17T04:54:50;10.50;;;4.63;;
18695;SDS011;22617;43.690;27.956;2022-10-17T04:59:55;9.97;;;4.77;;
18695;SDS011;22617;43.690;27.956;2022-10-17T05:05:22;60.90;;;29.67;;
18695;SDS011;22617;43.690;27.956;2022-10-17T05:10:28;45.00;;;21.67;;
18695;SDS011;22617;43.690;27.956;2022-10-17T05:15:32;29.27;;;12.70;;
18695;SDS011;22617;43.690;27.956;2022-10-17T05:20:36;34.60;;;15.33;;
18695;SDS011;22617;43.690;27.956;2022-10-17T05:25:42;17.00;;;8.80;;
18695;SDS011;22617;43.690;27.956;2022-10-17T05:30:45;9.30;;;5.40;;
18695;SDS011;22617;43.690;27.956;2022-10-17T05:35:50;13.57;;;5.60;;
18695;SDS011;22617;43.690;27.956;2022-10-17T05:40:57;12.73;;;4.87;;
18695;SDS011;22617;43.690;27.956;2022-10-17T05:46:02;10.10;;;4.90;;
18695;SDS011;22617;43.690;27.956;2022-10-17T05:51:08;11.57;;;5.23;;
18695;SDS011;22617;43.690;27.956;2022-10-17T05:56:15;8.63;;;4.90;;
18695;SDS011;22617;43.690;27.956;2022-10-17T06:01:22;15.00;;;4.90;;
18695;SDS011;22617;43.690;27.956;2022-10-17T06:06:27;9.10;;;4.63;;
18695;SDS011;22617;43.690;27.956;2022-10-17T06:11:32;10.00;;;5.03;;
18695;SDS011;22617;43.690;27.956;2022-10-17T06:16:36;10.83;;;5.13;;
18695;SDS011;22617;43.690;27.956;2022-10-17T06:21:39;7.83;;;4.77;;
18695;SDS011;22617;43.690;27.956;2022-10-17T06:26:48;9.30;;;4.23;;
18695;SDS011;22617;43.690;27.956;2022-10-17T06:31:54;9.50;;;4.33;;
18695;SDS011;22617;43.690;27.956;2022-10-17T06:36:59;7.07;;;4.03;;
18695;SDS011;22617;43.690;27.956;2022-10-17T06:42:05;7.67;;;4.53;;
18695;SDS011;22617;43.690;27.956;2022-10-17T06:47:41;11.47;;;4.20;;
18695;SDS011;22617;43.690;27.956;2022-10-17T06:53:00;5.57;;;4.10;;
18695;SDS011;22617;43.690;27.956;2022-10-17T06:58:20;13.60;;;4.33;;
18695;SDS011;22617;43.690;27.956;2022-10-17T07:03:46;11.87;;;4.47;;
18695;SDS011;22617;43.690;27.956;2022-10-17T07:08:50;10.20;;;4.20;;
18695;SDS011;22617;43.690;27.956;2022-10-17T07:13:57;9.67;;;4.37;;
18695;SDS011;22617;43.690;27.956;2022-10-17T07:19:01;11.57;;;4.30;;
18695;SDS011;22617;43.690;27.956;2022-10-17T07:24:09;6.97;;;4.30;;
18695;SDS011;22617;43.690;27.956;2022-10-17T07:29:17;8.60;;;3.90;;
18695;SDS011;22617;43.690;27.956;2022-10-17T07:34:32;10.47;;;4.43;;
18695;SDS011;22617;43.690;27.956;2022-10-17T07:39:36;12.67;;;4.40;;
18695;SDS011;22617;43.690;27.956;2022-10-17T07:44:42;7.07;;;4.25;;
18695;SDS011;22617;43.690;27.956;2022-10-17T07:49:48;11.30;;;5.17;;
18695;SDS011;22617;43.690;27.956;2022-10-17T07:54:52;8.60;;;4.63;;
18695;SDS011;22617;43.690;27.956;2022-10-17T07:59:57;13.85;;;5.07;;
18695;SDS011;22617;43.690;27.956;2022-10-17T08:05:00;11.70;;;4.50;;
18695;SDS011;22617;43.690;27.956;2022-10-17T08:10:04;10.45;;;4.55;;
18695;SDS011;22617;43.690;27.956;2022-10-17T08:15:10;9.27;;;4.10;;
18695;SDS011;22617;43.690;27.956;2022-10-17T08:20:14;9.85;;;4.30;;
18695;SDS011;22617;43.690;27.956;2022-10-17T08:25:17;9.00;;;4.23;;
18695;SDS011;22617;43.690;27.956;2022-10-17T08:30:22;11.48;;;4.88;;
18695;SDS011;22617;43.690;27.956;2022-10-17T08:35:26;9.70;;;4.32;;
18695;SDS011;22617;43.690;27.956;2022-10-17T08:40:30;8.68;;;4.50;;
18695;SDS011;22617;43.690;27.956;2022-10-17T08:45:37;9.27;;;3.72;;
18695;SDS011;22617;43.690;27.956;2022-10-17T08:50:47;9.98;;;3.58;;
18695;SDS011;22617;43.690;27.956;2022-10-17T08:55:54;9.57;;;3.58;;
18695;SDS011;22617;43.690;27.956;2022-10-17T09:01:03;7.78;;;4.30;;
18695;SDS011;22617;43.690;27.956;2022-10-17T09:06:16;6.43;;;3.42;;
18695;SDS011;22617;43.690;27.956;2022-10-17T09:11:36;9.57;;;3.83;;
18695;SDS011;22617;43.690;27.956;2022-10-17T09:16:55;10.38;;;3.63;;
18695;SDS011;22617;43.690;27.956;2022-10-17T09:22:11;8.15;;;3.20;;
18695;SDS011;22617;43.690;27.956;2022-10-17T09:27:21;7.10;;;2.83;;
18695;SDS011;22617;43.690;27.956;2022-10-17T09:32:27;6.03;;;3.63;;
18695;SDS011;22617;43.690;27.956;2022-10-17T09:37:31;6.32;;;2.90;;
18695;SDS011;22617;43.690;27.956;2022-10-17T09:42:34;10.65;;;3.20;;
18695;SDS011;22617;43.690;27.956;2022-10-17T09:47:41;10.77;;;3.20;;
18695;SDS011;22617;43.690;27.956;2022-10-17T09:52:51;7.13;;;3.50;;
18695;SDS011;22617;43.690;27.956;2022-10-17T09:57:56;7.60;;;3.05;;
18695;SDS011;22617;43.690;27.956;2022-10-17T10:08:25;9.13;;;3.47;;
18695;SDS011;22617;43.690;27.956;2022-10-17T10:13:31;5.10;;;2.85;;
18695;SDS011;22617;43.690;27.956;2022-10-17T10:18:37;6.70;;;3.25;;
18695;SDS011;22617;43.690;27.956;2022-10-17T10:23:41;5.63;;;2.75;;
18695;SDS011;22617;43.690;27.956;2022-10-17T10:28:50;7.93;;;3.08;;
18695;SDS011;22617;43.690;27.956;2022-10-17T10:33:57;6.00;;;3.58;;
18695;SDS011;22617;43.690;27.956;2022-10-17T10:39:04;6.55;;;3.00;;
18695;SDS011;22617;43.690;27.956;2022-10-17T10:44:10;9.00;;;3.13;;
18695;SDS011;22617;43.690;27.956;2022-10-17T10:54:36;6.90;;;3.25;;
18695;SDS011;22617;43.690;27.956;2022-10-17T10:59:46;5.70;;;3.00;;
18695;SDS011;22617;43.690;27.956;2022-10-17T11:05:01;13.48;;;2.97;;
18695;SDS011;22617;43.690;27.956;2022-10-17T11:10:11;12.57;;;3.15;;
18695;SDS011;22617;43.690;27.956;2022-10-17T11:15:20;5.82;;;3.00;;
18695;SDS011;22617;43.690;27.956;2022-10-17T11:20:31;7.38;;;2.55;;
18695;SDS011;22617;43.690;27.956;2022-10-17T11:25:40;4.38;;;2.70;;
18695;SDS011;22617;43.690;27.956;2022-10-17T11:30:45;7.93;;;2.90;;
18695;SDS011;22617;43.690;27.956;2022-10-17T11:35:54;5.00;;;2.90;;
18695;SDS011;22617;43.690;27.956;2022-10-17T11:41:03;6.70;;;3.40;;
18695;SDS011;22617;43.690;27.956;2022-10-17T11:46:11;9.25;;;3.38;;
18695;SDS011;22617;43.690;27.956;2022-10-17T11:51:18;9.48;;;3.92;;
18695;SDS011;22617;43.690;27.956;2022-10-17T11:56:44;8.65;;;3.40;;
18695;SDS011;22617;43.690;27.956;2022-10-17T12:01:53;7.90;;;3.70;;
18695;SDS011;22617;43.690;27.956;2022-10-17T12:07:07;7.60;;;3.38;;
18695;SDS011;22617;43.690;27.956;2022-10-17T12:12:24;14.45;;;4.60;;
18695;SDS011;22617;43.690;27.956;2022-10-17T12:17:30;5.30;;;3.33;;
18695;SDS011;22617;43.690;27.956;2022-10-17T12:22:39;12.48;;;3.45;;
18695;SDS011;22617;43.690;27.956;2022-10-17T12:27:48;6.05;;;3.25;;
18695;SDS011;22617;43.690;27.956;2022-10-17T12:32:57;12.25;;;3.70;;
18695;SDS011;22617;43.690;27.956;2022-10-17T12:38:18;7.65;;;3.13;;
18695;SDS011;22617;43.690;27.956;2022-10-17T12:48:58;11.10;;;3.53;;
18695;SDS011;22617;43.690;27.956;2022-10-17T12:54:09;9.85;;;3.40;;
18695;SDS011;22617;43.690;27.956;2022-10-17T12:59:15;5.18;;;2.45;;
18695;SDS011;22617;43.690;27.956;2022-10-17T13:04:20;13.40;;;3.58;;
18695;SDS011;22617;43.690;27.956;2022-10-17T13:09:26;14.48;;;6.13;;
18695;SDS011;22617;43.690;27.956;2022-10-17T13:14:32;6.38;;;3.00;;
18695;SDS011;22617;43.690;27.956;2022-10-17T13:19:39;8.40;;;3.60;;
18695;SDS011;22617;43.690;27.956;2022-10-17T13:24:45;6.43;;;3.20;;
18695;SDS011;22617;43.690;27.956;2022-10-17T13:29:50;6.80;;;3.25;;
18695;SDS011;22617;43.690;27.956;2022-10-17T13:35:06;6.18;;;3.45;;
18695;SDS011;22617;43.690;27.956;2022-10-17T13:40:18;7.50;;;2.88;;
18695;SDS011;22617;43.690;27.956;2022-10-17T13:45:45;7.95;;;3.30;;
18695;SDS011;22617;43.690;27.956;2022-10-17T13:50:52;7.57;;;3.38;;
18695;SDS011;22617;43.690;27.956;2022-10-17T13:56:05;6.82;;;2.85;;
18695;SDS011;22617;43.690;27.956;2022-10-17T14:01:35;5.38;;;3.03;;
18695;SDS011;22617;43.690;27.956;2022-10-17T14:06:40;12.02;;;3.40;;
18695;SDS011;22617;43.690;27.956;2022-10-17T14:11:58;7.82;;;3.65;;
18695;SDS011;22617;43.690;27.956;2022-10-17T14:17:11;8.63;;;3.80;;
18695;SDS011;22617;43.690;27.956;2022-10-17T14:22:16;6.95;;;3.83;;
18695;SDS011;22617;43.690;27.956;2022-10-17T14:27:28;7.50;;;3.90;;
18695;SDS011;22617;43.690;27.956;2022-10-17T14:32:35;6.40;;;3.50;;
18695;SDS011;22617;43.690;27.956;2022-10-17T14:37:40;10.80;;;4.43;;
18695;SDS011;22617;43.690;27.956;2022-10-17T14:42:48;7.63;;;4.05;;
18695;SDS011;22617;43.690;27.956;2022-10-17T14:47:53;7.45;;;4.63;;
18695;SDS011;22617;43.690;27.956;2022-10-17T14:53:00;6.68;;;4.60;;
18695;SDS011;22617;43.690;27.956;2022-10-17T14:58:16;9.67;;;4.63;;
18695;SDS011;22617;43.690;27.956;2022-10-17T15:03:23;8.70;;;5.20;;
18695;SDS011;22617;43.690;27.956;2022-10-17T15:08:27;9.50;;;5.23;;
18695;SDS011;22617;43.690;27.956;2022-10-17T15:13:32;10.37;;;5.27;;
18695;SDS011;22617;43.690;27.956;2022-10-17T15:18:42;12.93;;;5.93;;
18695;SDS011;22617;43.690;27.956;2022-10-17T15:23:46;11.77;;;5.10;;
18695;SDS011;22617;43.690;27.956;2022-10-17T15:28:51;31.57;;;12.07;;
18695;SDS011;22617;43.690;27.956;2022-10-17T15:33:55;20.93;;;9.20;;
18695;SDS011;22617;43.690;27.956;2022-10-17T15:38:59;17.43;;;7.17;;
18695;SDS011;22617;43.690;27.956;2022-10-17T15:44:05;12.03;;;7.83;;
18695;SDS011;22617;43.690;27.956;2022-10-17T15:49:10;10.63;;;6.83;;
18695;SDS011;22617;43.690;27.956;2022-10-17T15:54:15;11.10;;;6.77;;
18695;SDS011;22617;43.690;27.956;2022-10-17T15:59:20;13.63;;;6.70;;
18695;SDS011;22617;43.690;27.956;2022-10-17T16:04:26;11.27;;;6.30;;
18695;SDS011;22617;43.690;27.956;2022-10-17T16:09:31;12.57;;;7.00;;
18695;SDS011;22617;43.690;27.956;2022-10-17T16:14:36;52.87;;;21.27;;
18695;SDS011;22617;43.690;27.956;2022-10-17T16:19:39;130.80;;;46.07;;
18695;SDS011;22617;43.690;27.956;2022-10-17T16:24:43;102.60;;;38.42;;
18695;SDS011;22617;43.690;27.956;2022-10-17T16:29:48;43.73;;;17.43;;
18695;SDS011;22617;43.690;27.956;2022-10-17T16:34:51;26.23;;;12.43;;
18695;SDS011;22617;43.690;27.956;2022-10-17T16:39:55;19.37;;;9.97;;
18695;SDS011;22617;43.690;27.956;2022-10-17T16:45:00;24.13;;;10.30;;
18695;SDS011;22617;43.690;27.956;2022-10-17T16:50:04;15.47;;;9.13;;
18695;SDS011;22617;43.690;27.956;2022-10-17T16:55:08;18.57;;;9.60;;
18695;SDS011;22617;43.690;27.956;2022-10-17T17:00:14;19.90;;;10.17;;
18695;SDS011;22617;43.690;27.956;2022-10-17T17:05:18;21.00;;;11.10;;
18695;SDS011;22617;43.690;27.956;2022-10-17T17:10:22;20.80;;;11.50;;
18695;SDS011;22617;43.690;27.956;2022-10-17T17:15:27;23.60;;;13.30;;
18695;SDS011;22617;43.690;27.956;2022-10-17T17:20:31;26.33;;;13.40;;
18695;SDS011;22617;43.690;27.956;2022-10-17T17:25:35;19.93;;;12.93;;
18695;SDS011;22617;43.690;27.956;2022-10-17T17:30:41;16.50;;;10.00;;
18695;SDS011;22617;43.690;27.956;2022-10-17T17:35:44;14.47;;;9.20;;
18695;SDS011;22617;43.690;27.956;2022-10-17T17:40:48;17.83;;;10.27;;
18695;SDS011;22617;43.690;27.956;2022-10-17T17:45:53;17.07;;;9.67;;
18695;SDS011;22617;43.690;27.956;2022-10-17T17:50:58;18.90;;;8.70;;
18695;SDS011;22617;43.690;27.956;2022-10-17T17:56:05;16.63;;;8.73;;
18695;SDS011;22617;43.690;27.956;2022-10-17T18:01:13;16.30;;;8.97;;
18695;SDS011;22617;43.690;27.956;2022-10-17T18:06:21;17.93;;;9.07;;
18695;SDS011;22617;43.690;27.956;2022-10-17T18:11:25;17.50;;;10.13;;
18695;SDS011;22617;43.690;27.956;2022-10-17T18:16:31;20.33;;;10.50;;
18695;SDS011;22617;43.690;27.956;2022-10-17T18:21:36;21.53;;;11.53;;
18695;SDS011;22617;43.690;27.956;2022-10-17T18:26:39;21.53;;;11.13;;
18695;SDS011;22617;43.690;27.956;2022-10-17T18:31:44;21.10;;;10.30;;
18695;SDS011;22617;43.690;27.956;2022-10-17T18:36:48;18.00;;;9.53;;
18695;SDS011;22617;43.690;27.956;2022-10-17T18:41:53;20.33;;;10.23;;
18695;SDS011;22617;43.690;27.956;2022-10-17T18:46:58;15.87;;;8.90;;
18695;SDS011;22617;43.690;27.956;2022-10-17T18:52:05;15.90;;;10.07;;
18695;SDS011;22617;43.690;27.956;2022-10-17T18:57:08;20.13;;;9.70;;
18695;SDS011;22617;43.690;27.956;2022-10-17T19:02:13;13.23;;;8.23;;
18695;SDS011;22617;43.690;27.956;2022-10-17T19:07:16;20.77;;;10.07;;
18695;SDS011;22617;43.690;27.956;2022-10-17T19:12:20;17.73;;;9.50;;
18695;SDS011;22617;43.690;27.956;2022-10-17T19:17:25;14.67;;;8.40;;
18695;SDS011;22617;43.690;27.956;2022-10-17T19:22:29;17.80;;;9.13;;
18695;SDS011;22617;43.690;27.956;2022-10-17T19:27:34;15.70;;;9.23;;
18695;SDS011;22617;43.690;27.956;2022-10-17T19:32:39;19.03;;;10.47;;
18695;SDS011;22617;43.690;27.956;2022-10-17T19:37:43;20.80;;;10.53;;
18695;SDS011;22617;43.690;27.956;2022-10-17T19:42:46;20.60;;;10.47;;
18695;SDS011;22617;43.690;27.956;2022-10-17T19:47:51;24.27;;;11.27;;
18695;SDS011;22617;43.690;27.956;2022-10-17T19:52:55;26.70;;;11.63;;
18695;SDS011;22617;43.690;27.956;2022-10-17T19:57:58;25.90;;;11.00;;
18695;SDS011;22617;43.690;27.956;2022-10-17T20:03:04;26.60;;;11.93;;
18695;SDS011;22617;43.690;27.956;2022-10-17T20:08:08;25.50;;;11.83;;
18695;SDS011;22617;43.690;27.956;2022-10-17T20:13:11;32.90;;;13.70;;
18695;SDS011;22617;43.690;27.956;2022-10-17T20:18:17;30.27;;;11.87;;
18695;SDS011;22617;43.690;27.956;2022-10-17T20:23:20;30.47;;;12.00;;
18695;SDS011;22617;43.690;27.956;2022-10-17T20:28:24;25.30;;;12.17;;
18695;SDS011;22617;43.690;27.956;2022-10-17T20:33:29;24.23;;;11.03;;
18695;SDS011;22617;43.690;27.956;2022-10-17T20:38:33;21.33;;;10.40;;
18695;SDS011;22617;43.690;27.956;2022-10-17T20:43:37;18.47;;;11.70;;
18695;SDS011;22617;43.690;27.956;2022-10-17T20:48:42;20.13;;;10.63;;
18695;SDS011;22617;43.690;27.956;2022-10-17T20:53:46;23.77;;;11.37;;
18695;SDS011;22617;43.690;27.956;2022-10-17T20:58:50;17.70;;;9.47;;
18695;SDS011;22617;43.690;27.956;2022-10-17T21:03:56;17.80;;;9.30;;
18695;SDS011;22617;43.690;27.956;2022-10-17T21:09:20;18.33;;;10.03;;
18695;SDS011;22617;43.690;27.956;2022-10-17T21:14:24;16.33;;;9.20;;
18695;SDS011;22617;43.690;27.956;2022-10-17T21:19:28;17.37;;;9.43;;
18695;SDS011;22617;43.690;27.956;2022-10-17T21:24:32;16.43;;;9.53;;
18695;SDS011;22617;43.690;27.956;2022-10-17T21:29:35;16.40;;;9.30;;
18695;SDS011;22617;43.690;27.956;2022-10-17T21:34:40;17.70;;;9.67;;
18695;SDS011;22617;43.690;27.956;2022-10-17T21:39:44;18.90;;;9.83;;
18695;SDS011;22617;43.690;27.956;2022-10-17T21:44:47;16.50;;;9.73;;
18695;SDS011;22617;43.690;27.956;2022-10-17T21:49:52;17.80;;;10.17;;
18695;SDS011;22617;43.690;27.956;2022-10-17T21:54:56;16.83;;;9.53;;
18695;SDS011;22617;43.690;27.956;2022-10-17T22:00:00;17.23;;;9.03;;
18695;SDS011;22617;43.690;27.956;2022-10-17T22:05:14;18.87;;;9.20;;
18695;SDS011;22617;43.690;27.956;2022-10-17T22:10:18;16.53;;;9.10;;
18695;SDS011;22617;43.690;27.956;2022-10-17T22:15:21;15.20;;;8.90;;
18695;SDS011;22617;43.690;27.956;2022-10-17T22:20:26;17.93;;;10.67;;
18695;SDS011;22617;43.690;27.956;2022-10-17T22:25:30;29.03;;;13.57;;
18695;SDS011;22617;43.690;27.956;2022-10-17T22:30:33;34.33;;;15.73;;
18695;SDS011;22617;43.690;27.956;2022-10-17T22:35:38;20.83;;;12.20;;
18695;SDS011;22617;43.690;27.956;2022-10-17T22:40:42;26.83;;;13.67;;
18695;SDS011;22617;43.690;27.956;2022-10-17T22:45:53;26.50;;;13.00;;
18695;SDS011;22617;43.690;27.956;2022-10-17T22:50:58;19.77;;;11.97;;
18695;SDS011;22617;43.690;27.956;2022-10-17T22:56:03;24.17;;;11.83;;
18695;SDS011;22617;43.690;27.956;2022-10-17T23:01:09;28.23;;;13.40;;
18695;SDS011;22617;43.690;27.956;2022-10-17T23:06:18;26.17;;;14.53;;
18695;SDS011;22617;43.690;27.956;2022-10-17T23:11:22;26.10;;;13.90;;
18695;SDS011;22617;43.690;27.956;2022-10-17T23:16:26;32.07;;;15.73;;
18695;SDS011;22617;43.690;27.956;2022-10-17T23:21:31;26.77;;;14.87;;
18695;SDS011;22617;43.690;27.956;2022-10-17T23:26:34;27.57;;;14.83;;
18695;SDS011;22617;43.690;27.956;2022-10-17T23:31:38;25.73;;;15.00;;
18695;SDS011;22617;43.690;27.956;2022-10-17T23:36:43;23.03;;;12.40;;
18695;SDS011;22617;43.690;27.956;2022-10-17T23:41:46;20.67;;;10.70;;
18695;SDS011;22617;43.690;27.956;2022-10-17T23:46:49;17.87;;;9.40;;
18695;SDS011;22617;43.690;27.956;2022-10-17T23:51:54;16.77;;;9.13;;
18695;SDS011;22617;43.690;27.956;2022-10-17T23:56:58;18.70;;;9.43;;
